Time;durP1;ratioP1;P1;durP2;ratioP2;P2;SDS_P1;SDS_P2;PMS_P1;PMS_P2;Temp;Humidity;BMP_temperature;BMP_pressure;BME280_temperature;BME280_humidity;BME280_pressure;Samples;Min_cycle;Max_cycle;Signal;HPM_P1;HPM_P2
2022/06/14 00:02:17;;;;;;;5.82;1.58;;;;;;;14.98;58.57;99218.22;4136161;28;20669;-62
2022/06/14 00:04:19;;;;;;;2.80;1.65;;;;;;;14.96;58.93;99214.06;4121666;28;20858;-62
2022/06/14 00:06:23;;;;;;;3.17;1.73;;;;;;;14.90;58.86;99220.63;4121233;28;20222;-62
2022/06/14 00:08:26;;;;;;;3.28;1.63;;;;;;;14.90;58.82;99221.44;4136745;28;20604;-62
2022/06/14 00:10:28;;;;;;;2.92;1.65;;;;;;;14.88;58.59;99229.16;4117415;28;20237;-62
2022/06/14 00:12:30;;;;;;;3.88;1.40;;;;;;;14.84;58.82;99233.50;4120618;28;20466;-62
2022/06/14 00:14:31;;;;;;;5.55;1.98;;;;;;;14.80;58.74;99224.09;4115649;28;20275;-62
2022/06/14 00:16:35;;;;;;;5.75;1.77;;;;;;;14.77;58.85;99221.84;4137833;28;20597;-62
2022/06/14 00:18:38;;;;;;;1.50;1.35;;;;;;;14.75;58.93;99218.53;4135802;28;20256;-62
2022/06/14 00:20:43;;;;;;;3.25;1.80;;;;;;;14.69;58.87;99219.56;4138612;28;20201;-62
2022/06/14 00:22:46;;;;;;;1.55;1.40;;;;;;;14.67;59.15;99227.28;4121251;28;20214;-61
2022/06/14 00:24:55;;;;;;;3.08;1.23;;;;;;;14.64;59.35;99225.00;4137527;28;20700;-62
2022/06/14 00:26:59;;;;;;;1.98;1.60;;;;;;;14.64;59.21;99227.78;4119193;28;20210;-59
2022/06/14 00:29:01;;;;;;;4.32;1.80;;;;;;;14.62;59.37;99229.97;4136350;28;20209;-60
2022/06/14 00:31:07;;;;;;;4.13;1.77;;;;;;;14.55;59.35;99221.06;4119306;28;20210;-60
2022/06/14 00:33:09;;;;;;;4.70;1.60;;;;;;;14.49;59.37;99230.38;4122352;28;21132;-60
2022/06/14 00:35:10;;;;;;;5.88;2.10;;;;;;;14.46;59.67;99230.03;4122312;28;20206;-60
2022/06/14 00:37:15;;;;;;;2.15;1.48;;;;;;;14.36;59.98;99230.75;4138772;28;20480;-60
2022/06/14 00:39:17;;;;;;;2.30;1.73;;;;;;;14.32;59.87;99224.13;4104680;28;20207;-60
2022/06/14 00:41:43;;;;;;;4.72;1.95;;;;;;;14.26;60.24;99219.63;4136982;28;20226;-62
2022/06/14 00:43:45;;;;;;;5.50;2.35;;;;;;;14.25;60.41;99223.47;4134049;28;20256;-60
2022/06/14 00:45:48;;;;;;;1.73;1.52;;;;;;;14.23;60.39;99220.13;4119169;28;20214;-60
2022/06/14 00:47:50;;;;;;;7.45;2.53;;;;;;;14.22;60.58;99212.97;4122109;28;20225;-60
2022/06/14 00:49:58;;;;;;;2.38;1.58;;;;;;;14.21;60.44;99218.72;4118794;28;20269;-60
2022/06/14 00:52:27;;;;;;;2.30;1.42;;;;;;;14.17;60.60;99218.34;4123251;28;20205;-60
2022/06/14 00:54:33;;;;;;;1.75;1.65;;;;;;;14.17;60.61;99215.59;4114673;28;20708;-60
2022/06/14 00:56:47;;;;;;;4.07;2.05;;;;;;;14.16;60.41;99213.94;4139555;28;20209;-60
2022/06/14 00:59:15;;;;;;;3.53;1.92;;;;;;;14.14;60.81;99213.38;4136267;28;20263;-60
2022/06/14 01:01:21;;;;;;;3.30;2.53;;;;;;;14.08;60.80;99211.66;4102537;28;20285;-63
2022/06/14 01:03:27;;;;;;;3.92;1.77;;;;;;;14.07;60.77;99207.25;4118299;28;20650;-62
2022/06/14 01:07:58;;;;;;;3.50;1.80;;;;;;;14.06;60.35;99201.97;4140309;28;20237;-60
2022/06/14 01:10:03;;;;;;;2.88;1.88;;;;;;;13.98;60.78;99194.97;4136706;28;20233;-60
2022/06/14 01:12:13;;;;;;;5.45;1.80;;;;;;;13.90;60.91;99198.19;4109907;28;20207;-60
2022/06/14 01:14:20;;;;;;;3.92;1.40;;;;;;;13.88;61.33;99200.38;4103541;28;20253;-62
2022/06/14 01:16:22;;;;;;;2.75;1.77;;;;;;;13.88;60.84;99200.38;4119207;28;20217;-60
2022/06/14 01:18:25;;;;;;;2.90;1.65;;;;;;;13.86;61.36;99202.56;4138582;28;20208;-60
2022/06/14 01:20:27;;;;;;;2.33;1.40;;;;;;;13.87;61.02;99204.22;4139771;28;20224;-60
2022/06/14 01:22:30;;;;;;;4.18;2.10;;;;;;;13.81;61.54;99202.47;4108994;28;20207;-63
2022/06/14 01:24:33;;;;;;;2.22;1.40;;;;;;;13.73;61.54;99205.66;4122803;28;20230;-62
2022/06/14 01:26:35;;;;;;;4.28;1.75;;;;;;;13.74;61.42;99199.06;4118309;28;20285;-60
2022/06/14 01:28:38;;;;;;;2.38;1.48;;;;;;;13.74;61.32;99204.59;4123757;28;20206;-63
2022/06/14 01:30:45;;;;;;;3.20;2.40;;;;;;;13.79;61.38;99204.66;4120810;28;20237;-60
2022/06/14 01:32:54;;;;;;;2.38;1.50;;;;;;;13.78;61.56;99205.72;4125999;28;20328;-63
2022/06/14 01:34:58;;;;;;;3.45;1.83;;;;;;;13.82;61.47;99201.38;4126045;28;20205;-62
2022/06/14 01:37:01;;;;;;;2.17;1.95;;;;;;;13.78;61.51;99202.97;4125802;28;21802;-61
2022/06/14 01:39:06;;;;;;;9.38;2.30;;;;;;;13.74;61.57;99199.06;4107906;28;20206;-61
2022/06/14 01:41:17;;;;;;;2.13;1.67;;;;;;;13.66;62.14;99201.41;4121584;28;20203;-61
2022/06/14 01:43:30;;;;;;;2.15;1.85;;;;;;;13.59;62.25;99201.63;4141261;28;20229;-61
2022/06/14 01:45:44;;;;;;;2.22;1.98;;;;;;;13.57;62.19;99198.25;4124744;28;20304;-61
2022/06/14 01:48:03;;;;;;;2.60;1.77;;;;;;;13.56;62.52;99191.09;4139534;28;20212;-62
2022/06/14 01:53:13;;;;;;;2.55;1.55;;;;;;;13.47;62.97;99191.78;4128318;28;20233;-62
2022/06/14 01:55:17;;;;;;;2.30;1.63;;;;;;;13.39;62.46;99195.81;4134928;28;20264;-61
2022/06/14 01:57:30;;;;;;;2.17;1.98;;;;;;;13.39;62.91;99201.31;4124260;28;20215;-62
2022/06/14 01:59:35;;;;;;;1.77;1.60;;;;;;;13.34;63.09;99203.97;4125282;28;20656;-62
2022/06/14 02:01:45;;;;;;;2.65;2.42;;;;;;;13.28;63.00;99202.22;4134670;28;20260;-61
2022/06/14 02:06:29;;;;;;;2.65;1.77;;;;;;;13.09;62.98;99202.72;4135278;28;20217;-61
2022/06/14 02:08:35;;;;;;;3.75;1.67;;;;;;;12.99;63.19;99200.66;4136293;28;20208;-61
2022/06/14 02:10:45;;;;;;;2.95;2.25;;;;;;;12.88;64.03;99200.66;4123655;28;20221;-61
2022/06/14 02:13:01;;;;;;;4.93;2.30;;;;;;;12.91;63.82;99209.25;4121422;28;20206;-61
2022/06/14 02:15:08;;;;;;;3.95;2.83;;;;;;;12.99;63.37;99205.28;4139662;28;20279;-61
2022/06/14 02:17:14;;;;;;;2.55;2.25;;;;;;;12.93;63.46;99207.09;4120075;28;20676;-62
2022/06/14 02:19:31;;;;;;;2.50;2.30;;;;;;;12.88;63.74;99204.25;4136592;28;20276;-61
2022/06/14 02:21:38;;;;;;;1.65;1.55;;;;;;;12.85;63.34;99199.25;4112959;28;20572;-61
2022/06/14 02:23:47;;;;;;;1.90;1.55;;;;;;;12.82;63.75;99201.66;4136215;28;20265;-61
2022/06/14 02:25:54;;;;;;;2.20;1.95;;;;;;;12.79;63.81;99199.41;4123229;28;20198;-61
2022/06/14 02:28:28;;;;;;;2.42;2.03;;;;;;;12.73;64.15;99201.25;4135319;28;20229;-62
2022/06/14 02:30:48;;;;;;;4.80;2.53;;;;;;;12.75;64.07;99210.06;4119567;28;20229;-61
2022/06/14 02:32:58;;;;;;;2.70;2.17;;;;;;;12.78;63.97;99204.06;4136918;28;20213;-61
2022/06/14 02:35:06;;;;;;;4.35;2.00;;;;;;;12.77;64.12;99205.16;4137739;28;20279;-62
2022/06/14 02:37:31;;;;;;;3.17;2.30;;;;;;;12.75;63.79;99198.22;4121516;28;20197;-62
2022/06/14 02:39:36;;;;;;;4.57;2.28;;;;;;;12.72;63.76;99199.59;4123670;28;20237;-61
2022/06/14 02:41:41;;;;;;;2.78;2.05;;;;;;;12.62;64.18;99196.63;4126142;28;20273;-61
2022/06/14 02:43:50;;;;;;;2.42;1.85;;;;;;;12.60;63.99;99196.06;4137103;28;20225;-61
2022/06/14 02:46:06;;;;;;;3.13;2.55;;;;;;;12.60;64.29;99196.06;4135901;28;20292;-62
2022/06/14 02:48:33;;;;;;;2.00;1.80;;;;;;;12.67;63.96;99196.75;4123815;28;20229;-61
2022/06/14 02:50:42;;;;;;;2.42;2.05;;;;;;;12.70;63.83;99196.22;4117870;28;20326;-61
2022/06/14 02:52:50;;;;;;;2.22;1.85;;;;;;;12.70;64.22;99188.00;4136578;28;20253;-61
2022/06/14 02:54:56;;;;;;;2.75;2.25;;;;;;;12.67;64.35;99201.38;4126094;28;20225;-61
2022/06/14 02:57:04;;;;;;;4.30;2.22;;;;;;;12.63;64.35;99195.56;4127930;28;20209;-62
2022/06/14 02:59:21;;;;;;;2.15;2.00;;;;;;;12.55;64.44;99198.69;4142418;28;20243;-61
2022/06/14 03:01:31;;;;;;;2.90;2.65;;;;;;;12.51;64.75;99192.03;4123021;28;20201;-61
2022/06/14 03:03:41;;;;;;;2.30;2.10;;;;;;;12.45;64.86;99186.69;4122265;28;20221;-61
2022/06/14 03:05:50;;;;;;;2.83;2.58;;;;;;;12.41;64.97;99191.84;4122616;28;20206;-61
2022/06/14 03:08:13;;;;;;;4.82;3.42;;;;;;;12.40;64.65;99183.84;4124135;28;20202;-61
2022/06/14 03:10:15;;;;;;;4.68;3.03;;;;;;;12.37;64.75;99185.16;4131879;28;20703;-62
2022/06/14 03:12:26;;;;;;;3.05;2.75;;;;;;;12.29;65.25;99182.81;4115654;28;20209;-61
2022/06/14 03:14:57;;;;;;;3.72;3.22;;;;;;;12.30;65.18;99184.47;4117348;28;20233;-61
2022/06/14 03:17:17;;;;;;;3.22;3.00;;;;;;;12.24;64.83;99185.47;4131907;28;20209;-61
2022/06/14 03:19:47;;;;;;;3.83;2.88;;;;;;;12.20;65.34;99195.28;4135208;28;20264;-61
2022/06/14 03:22:17;;;;;;;2.63;2.42;;;;;;;12.19;65.12;99187.28;4138897;28;20209;-61
2022/06/14 03:24:41;;;;;;;2.47;1.98;;;;;;;12.18;65.18;99194.66;4134171;28;20232;-61
2022/06/14 03:26:53;;;;;;;3.63;3.08;;;;;;;12.22;65.22;99187.63;4118919;28;20719;-61
2022/06/14 03:29:09;;;;;;;2.25;2.00;;;;;;;12.25;64.95;99192.59;4120270;28;20207;-61
2022/06/14 03:31:17;;;;;;;5.00;1.75;;;;;;;12.25;64.65;99189.88;4136800;28;20271;-61
2022/06/14 03:33:38;;;;;;;2.55;2.08;;;;;;;12.25;64.82;99192.59;4136927;28;20228;-61
2022/06/14 03:35:44;;;;;;;4.97;2.97;;;;;;;12.17;64.87;99182.03;4125165;28;20288;-61
2022/06/14 03:37:45;;;;;;;1.92;1.80;;;;;;;12.12;65.16;99181.91;4123313;28;20206;-61
2022/06/14 03:39:57;;;;;;;3.25;1.80;;;;;;;12.03;65.42;99199.84;4138348;28;20209;-61
2022/06/14 03:41:59;;;;;;;3.53;2.25;;;;;;;12.03;65.68;99188.06;4125343;28;20258;-61
2022/06/14 03:44:03;;;;;;;3.50;2.28;;;;;;;12.04;65.48;99189.72;4123479;28;20344;-61
2022/06/14 03:46:15;;;;;;;4.32;2.85;;;;;;;12.02;65.50;99192.69;4120779;28;20214;-61
2022/06/14 03:48:18;;;;;;;2.70;2.50;;;;;;;11.98;66.17;99191.50;4117453;28;20671;-61
2022/06/14 03:50:31;;;;;;;3.38;2.53;;;;;;;11.96;66.39;99196.41;4124782;28;20324;-61
2022/06/14 03:52:48;;;;;;;4.43;3.13;;;;;;;12.01;66.05;99199.25;4137086;28;20232;-61
2022/06/14 03:55:05;;;;;;;2.72;2.55;;;;;;;12.03;65.89;99196.28;4121893;28;20236;-61
2022/06/14 03:57:29;;;;;;;3.53;2.80;;;;;;;12.04;65.91;99197.94;4122196;28;20202;-61
2022/06/14 03:59:47;;;;;;;4.93;2.70;;;;;;;12.04;65.69;99204.25;4122735;28;20206;-61
2022/06/14 04:02:13;;;;;;;4.00;2.65;;;;;;;12.03;65.86;99194.34;4137225;28;20625;-62
2022/06/14 04:04:45;;;;;;;11.40;2.65;;;;;;;11.95;66.05;99192.00;4133015;28;20251;-62
2022/06/14 04:06:50;;;;;;;7.38;3.17;;;;;;;11.97;66.12;99195.31;4137594;28;20810;-62
2022/06/14 04:09:27;;;;;;;3.83;2.92;;;;;;;11.98;65.93;99202.47;4113944;28;20206;-62
2022/06/14 04:11:54;;;;;;;5.00;3.13;;;;;;;11.97;66.06;99189.84;4127653;28;20260;-62
2022/06/14 04:14:02;;;;;;;4.13;2.97;;;;;;;11.91;66.43;99185.31;4121150;28;20234;-61
2022/06/14 04:16:13;;;;;;;5.82;3.33;;;;;;;11.97;66.01;99189.03;4103307;28;20577;-62
2022/06/14 04:18:50;;;;;;;3.35;3.05;;;;;;;11.97;66.56;99194.50;4120230;28;20198;-62
2022/06/14 04:20:55;;;;;;;4.30;3.25;;;;;;;11.80;67.04;99183.47;4117921;28;20201;-62
2022/06/14 04:23:28;;;;;;;2.70;2.40;;;;;;;11.79;67.32;99190.03;4122201;28;20207;-62
2022/06/14 04:25:30;;;;;;;5.18;3.25;;;;;;;11.82;67.16;99192.28;4132698;28;20603;-62
2022/06/14 04:28:06;;;;;;;3.33;2.90;;;;;;;11.76;67.69;99187.75;4121709;28;20213;-62
2022/06/14 04:30:27;;;;;;;3.20;2.97;;;;;;;11.81;67.25;99187.88;4129908;28;20256;-61
2022/06/14 04:32:33;;;;;;;3.05;2.58;;;;;;;11.84;67.15;99201.06;4123469;28;20900;-61
2022/06/14 04:34:48;;;;;;;3.22;2.90;;;;;;;11.89;67.26;99198.44;4135485;28;20258;-61
2022/06/14 04:37:00;;;;;;;5.07;3.15;;;;;;;11.93;67.00;99202.38;4135900;28;20205;-62
2022/06/14 04:39:07;;;;;;;3.08;2.75;;;;;;;11.99;66.72;99198.69;4104018;28;20755;-61
2022/06/14 04:41:18;;;;;;;3.33;2.85;;;;;;;12.04;66.58;99201.50;4127922;28;20252;-61
2022/06/14 04:43:30;;;;;;;2.85;2.63;;;;;;;12.09;66.50;99192.53;4139990;28;20233;-61
2022/06/14 04:45:56;;;;;;;3.00;2.35;;;;;;;12.14;66.56;99184.41;4124897;28;20218;-61
2022/06/14 04:48:05;;;;;;;5.07;2.90;;;;;;;12.18;66.05;99197.41;4137133;28;20296;-63
2022/06/14 04:50:18;;;;;;;2.83;2.58;;;;;;;12.22;66.23;99193.13;4107527;28;20206;-62
2022/06/14 04:52:42;;;;;;;3.38;2.58;;;;;;;12.27;66.12;99193.22;4111707;28;20628;-61
2022/06/14 04:54:52;;;;;;;3.33;3.03;;;;;;;12.28;66.22;99186.66;4125220;28;20225;-62
2022/06/14 04:57:03;;;;;;;3.28;2.97;;;;;;;12.29;66.00;99188.31;4120248;28;20323;-62
2022/06/14 04:59:13;;;;;;;3.38;2.42;;;;;;;12.30;66.04;99184.47;4140002;28;20206;-61
2022/06/14 05:01:41;;;;;;;4.20;2.63;;;;;;;12.28;66.40;99192.13;4140669;28;20699;-61
2022/06/14 05:03:49;;;;;;;2.75;2.55;;;;;;;12.32;66.25;99187.84;4137631;28;20229;-61
2022/06/14 05:06:04;;;;;;;2.85;2.65;;;;;;;12.35;65.99;99187.34;4123104;28;20215;-61
2022/06/14 05:08:12;;;;;;;2.35;2.15;;;;;;;12.39;65.85;99188.53;4125316;28;20202;-62
2022/06/14 05:10:27;;;;;;;2.40;2.20;;;;;;;12.46;65.77;99194.69;4139090;28;20749;-62
2022/06/14 05:12:35;;;;;;;3.60;2.53;;;;;;;12.54;65.70;99191.56;4123426;28;20806;-62
2022/06/14 05:15:18;;;;;;;4.28;2.63;;;;;;;12.58;65.77;99191.88;4126682;28;20229;-62
2022/06/14 05:17:30;;;;;;;1.92;1.83;;;;;;;12.67;65.23;99185.75;4088401;28;20245;-61
2022/06/14 05:19:45;;;;;;;2.40;1.98;;;;;;;12.74;65.09;99186.44;4139772;28;20205;-62
2022/06/14 05:21:51;;;;;;;3.20;2.10;;;;;;;12.84;65.20;99186.59;4138218;28;20205;-62
2022/06/14 05:23:54;;;;;;;5.13;1.80;;;;;;;12.92;65.12;99177.97;4139926;28;20264;-62
2022/06/14 05:26:20;;;;;;;2.40;2.17;;;;;;;13.06;64.53;99184.81;4123711;28;20210;-62
2022/06/14 05:28:32;;;;;;;2.28;1.75;;;;;;;13.19;64.51;99183.66;4140411;28;20205;-63
2022/06/14 05:30:39;;;;;;;2.78;2.00;;;;;;;13.29;64.36;99173.66;4126782;28;20256;-61
2022/06/14 05:33:15;;;;;;;3.22;2.17;;;;;;;13.47;64.04;99165.13;4137548;28;20205;-62
2022/06/14 05:35:33;;;;;;;2.80;2.22;;;;;;;13.49;64.37;99168.44;4124173;28;20209;-61
2022/06/14 05:37:36;;;;;;;2.42;1.50;;;;;;;13.37;65.10;99169.66;4134052;28;20202;-61
2022/06/14 05:39:50;;;;;;;2.00;1.67;;;;;;;13.32;65.44;99178.66;4138096;28;20928;-61
2022/06/14 05:42:07;;;;;;;5.38;2.20;;;;;;;13.64;64.47;99170.59;4107227;28;20211;-62
2022/06/14 05:44:13;;;;;;;3.47;2.03;;;;;;;13.59;64.81;99179.63;4140098;28;20256;-62
2022/06/14 05:46:25;;;;;;;4.50;2.17;;;;;;;13.67;64.85;99175.56;4120190;28;20241;-62
2022/06/14 05:48:34;;;;;;;4.03;1.58;;;;;;;13.83;65.36;99172.78;4124765;28;20210;-62
2022/06/14 05:50:41;;;;;;;6.35;1.88;;;;;;;14.04;64.58;99176.66;4127243;28;20214;-63
2022/06/14 05:52:42;;;;;;;4.85;2.15;;;;;;;14.23;63.52;99165.06;4139405;28;20214;-63
2022/06/14 05:54:51;;;;;;;1.50;1.40;;;;;;;14.44;63.16;99166.94;4139151;28;20878;-61
2022/06/14 05:56:59;;;;;;;2.70;1.50;;;;;;;14.49;62.50;99167.00;4119564;28;20623;-61
2022/06/14 05:59:32;;;;;;;3.50;1.63;;;;;;;14.62;62.60;99163.03;4119949;28;20225;-61
2022/06/14 06:01:40;;;;;;;2.60;1.33;;;;;;;14.69;61.90;99164.47;4125400;28;20600;-61
2022/06/14 06:03:58;;;;;;;2.88;2.38;;;;;;;14.85;62.22;99166.28;4123874;28;20658;-62
2022/06/14 06:06:20;;;;;;;2.25;1.48;;;;;;;15.01;61.09;99162.56;4125488;28;20337;-60
2022/06/14 06:08:42;;;;;;;1.23;1.13;;;;;;;15.00;59.66;99165.56;4122824;28;20206;-61
2022/06/14 06:10:49;;;;;;;2.33;1.33;;;;;;;15.33;60.52;99171.69;4078361;28;20239;-62
2022/06/14 06:12:59;;;;;;;3.28;1.30;;;;;;;15.49;59.72;99176.19;4097896;28;20285;-62
2022/06/14 06:15:36;;;;;;;3.80;1.65;;;;;;;15.66;59.92;99176.03;4120304;28;20708;-60
2022/06/14 06:17:51;;;;;;;2.20;1.00;;;;;;;15.78;58.30;99179.44;4139115;28;20202;-61
2022/06/14 06:19:56;;;;;;;3.13;1.30;;;;;;;16.06;58.59;99171.56;4121182;28;20279;-62
2022/06/14 06:22:22;;;;;;;1.98;1.13;;;;;;;16.25;58.75;99172.78;4139471;28;20201;-62
2022/06/14 06:24:34;;;;;;;2.90;1.48;;;;;;;16.53;58.18;99169.56;4116997;28;20226;-63
2022/06/14 06:26:37;;;;;;;2.47;1.35;;;;;;;16.57;58.13;99167.91;4139037;28;20240;-62
2022/06/14 06:28:43;;;;;;;2.20;1.17;;;;;;;16.41;57.71;99162.59;4135623;28;20604;-62
2022/06/14 06:31:04;;;;;;;7.65;1.40;;;;;;;16.55;58.03;99166.53;4135645;28;20253;-61
2022/06/14 06:33:10;;;;;;;1.52;1.20;;;;;;;16.80;57.50;99172.09;4135161;28;20870;-62
2022/06/14 06:35:13;;;;;;;3.50;1.65;;;;;;;16.96;57.59;99154.44;4123609;28;20209;-61
2022/06/14 06:37:30;;;;;;;3.70;1.50;;;;;;;16.91;56.92;99169.09;4136217;28;20296;-62
2022/06/14 06:39:47;;;;;;;3.88;1.10;;;;;;;17.11;56.80;99169.13;4138242;28;20276;-61
2022/06/14 06:41:54;;;;;;;3.08;1.10;;;;;;;17.40;56.93;99167.47;4125083;28;20198;-61
2022/06/14 06:44:00;;;;;;;2.53;1.02;;;;;;;17.43;56.40;99166.91;4122219;28;20276;-61
2022/06/14 06:46:04;;;;;;;1.52;0.90;;;;;;;17.58;56.44;99158.59;4123598;28;20297;-61
2022/06/14 06:48:13;;;;;;;1.63;0.95;;;;;;;17.74;55.58;99166.59;4139425;28;20219;-61
2022/06/14 06:50:23;;;;;;;2.10;1.08;;;;;;;17.75;56.09;99167.41;4137518;28;20194;-60
2022/06/14 06:53:01;;;;;;;3.65;1.23;;;;;;;17.93;54.94;99166.81;4126745;28;20975;-61
2022/06/14 06:55:07;;;;;;;1.73;1.10;;;;;;;17.94;54.23;99166.53;4117199;28;20233;-61
2022/06/14 06:57:14;;;;;;;2.08;1.42;;;;;;;17.98;54.68;99161.25;4125036;28;20277;-61
2022/06/14 06:59:32;;;;;;;7.75;1.55;;;;;;;18.19;54.18;99166.41;4124338;28;20236;-61
2022/06/14 07:01:41;;;;;;;8.05;1.33;;;;;;;18.47;53.80;99162.19;4124926;28;20317;-61
2022/06/14 07:04:12;;;;;;;2.47;0.80;;;;;;;18.58;54.22;99158.25;4137679;28;20232;-61
2022/06/14 07:06:19;;;;;;;1.67;0.88;;;;;;;18.74;52.75;99163.41;4126248;28;20205;-61
2022/06/14 07:08:41;;;;;;;2.20;1.02;;;;;;;18.64;52.30;99157.91;4124876;28;20566;-61
2022/06/14 07:10:48;;;;;;;2.55;0.90;;;;;;;18.69;52.28;99154.28;4124776;28;20254;-61
2022/06/14 07:12:50;;;;;;;2.35;1.10;;;;;;;18.93;52.87;99160.78;4107588;28;20199;-61
2022/06/14 07:14:59;;;;;;;2.28;1.02;;;;;;;19.01;52.84;99157.41;4125148;28;20222;-62
2022/06/14 07:17:30;;;;;;;1.90;1.00;;;;;;;19.23;52.18;99153.09;4121868;28;20202;-63
2022/06/14 07:19:45;;;;;;;1.95;1.00;;;;;;;19.17;51.54;99150.63;4111361;28;20198;-62
2022/06/14 07:22:03;;;;;;;3.40;0.90;;;;;;;19.59;51.91;99154.41;4137931;28;20225;-62
2022/06/14 07:24:17;;;;;;;7.03;1.00;;;;;;;19.42;50.20;99153.19;4126391;28;20225;-62
2022/06/14 07:26:42;;;;;;;1.65;0.93;;;;;;;19.77;50.67;99155.66;4126427;28;20210;-62
2022/06/14 07:29:05;;;;;;;1.83;0.80;;;;;;;19.90;49.65;99149.38;4119693;28;20245;-62
2022/06/14 07:31:13;;;;;;;0.90;0.60;;;;;;;19.87;49.60;99149.97;4127205;28;20224;-62
2022/06/14 07:33:16;;;;;;;2.20;1.00;;;;;;;19.59;49.60;99143.28;4124228;28;20638;-62
2022/06/14 07:35:27;;;;;;;3.53;1.00;;;;;;;19.83;50.88;99148.88;4109872;28;20242;-62
2022/06/14 07:37:46;;;;;;;1.23;1.05;;;;;;;19.92;48.89;99144.34;4124903;28;20253;-62
2022/06/14 07:40:32;;;;;;;4.00;0.77;;;;;;;20.28;49.77;99151.16;4128063;28;20578;-62
2022/06/14 07:42:55;;;;;;;2.20;1.00;;;;;;;20.37;49.64;99146.63;4121267;28;20202;-62
2022/06/14 07:45:17;;;;;;;3.42;1.63;;;;;;;20.25;48.41;99147.03;4122416;28;20556;-62
2022/06/14 07:47:37;;;;;;;2.33;1.00;;;;;;;20.44;48.36;99141.53;4114673;28;20210;-62
2022/06/14 07:49:44;;;;;;;2.70;1.00;;;;;;;20.61;48.79;99133.47;4121264;28;20209;-62
2022/06/14 07:51:53;;;;;;;5.40;0.98;;;;;;;20.50;46.85;99137.53;4137320;28;20221;-61
2022/06/14 07:54:09;;;;;;;1.85;0.95;;;;;;;20.46;46.85;99130.91;4125285;28;20256;-62
2022/06/14 07:56:20;;;;;;;3.53;0.77;;;;;;;20.71;45.08;99127.78;4124058;28;20225;-61
2022/06/14 07:58:34;;;;;;;5.30;1.83;;;;;;;20.73;47.13;99126.34;4121398;28;20679;-62
2022/06/14 08:03:28;;;;;;;2.00;0.90;;;;;;;20.79;47.88;99125.13;4138281;28;20212;-62
2022/06/14 08:05:33;;;;;;;3.30;1.00;;;;;;;21.01;45.45;99135.69;4126315;28;20218;-61
2022/06/14 08:07:36;;;;;;;3.13;0.90;;;;;;;20.96;43.36;99130.19;4140348;28;20209;-61
2022/06/14 08:09:53;;;;;;;4.38;1.02;;;;;;;20.81;45.16;99124.84;4138258;28;20217;-61
2022/06/14 08:11:59;;;;;;;4.30;1.00;;;;;;;21.10;46.15;99122.75;4141244;28;20264;-62
2022/06/14 08:14:08;;;;;;;2.17;0.80;;;;;;;20.99;43.59;99126.81;4139776;28;20275;-61
2022/06/14 08:16:12;;;;;;;2.95;1.00;;;;;;;21.24;46.30;99115.28;4140618;28;20734;-62
2022/06/14 08:18:26;;;;;;;5.05;1.17;;;;;;;21.28;43.61;99117.13;4143670;28;20205;-61
2022/06/14 08:20:42;;;;;;;10.10;1.00;;;;;;;21.57;44.33;99126.06;4143992;28;20212;-62
2022/06/14 08:22:46;;;;;;;3.28;1.05;;;;;;;21.39;43.49;99123.34;4125642;28;20267;-61
2022/06/14 08:24:52;;;;;;;8.25;1.85;;;;;;;21.38;43.38;99121.69;4127210;28;20336;-61
2022/06/14 08:27:05;;;;;;;2.92;1.00;;;;;;;21.38;43.30;99116.13;4128289;28;20260;-61
2022/06/14 08:29:29;;;;;;;2.72;1.23;;;;;;;21.57;45.30;99111.34;4111513;28;20595;-62
2022/06/14 08:31:38;;;;;;;5.47;1.10;;;;;;;21.53;42.28;99105.56;4126610;28;20217;-62
2022/06/14 08:33:45;;;;;;;5.00;1.40;;;;;;;21.83;42.86;99113.34;4129535;28;20221;-61
2022/06/14 08:35:51;;;;;;;1.83;1.10;;;;;;;22.06;43.29;99112.34;4110357;28;20783;-61
2022/06/14 08:38:15;;;;;;;1.85;0.90;;;;;;;22.12;42.35;99099.91;4140882;28;20197;-61
2022/06/14 08:40:27;;;;;;;2.05;1.17;;;;;;;21.79;42.02;99111.50;4142058;28;20271;-61
2022/06/14 08:42:33;;;;;;;1.55;1.00;;;;;;;22.02;43.55;99102.09;4130152;28;20197;-61
2022/06/14 08:44:39;;;;;;;4.50;1.45;;;;;;;22.63;42.09;99102.50;4126766;28;20229;-61
2022/06/14 08:46:50;;;;;;;2.40;1.20;;;;;;;21.93;41.81;99106.75;4127584;28;20597;-60
2022/06/14 08:49:10;;;;;;;2.30;1.38;;;;;;;22.53;42.12;99105.50;4123145;28;20193;-61
2022/06/14 08:51:32;;;;;;;6.10;1.42;;;;;;;23.03;42.98;99093.16;4142699;28;20263;-61
2022/06/14 08:53:55;;;;;;;4.63;1.38;;;;;;;23.40;42.02;99090.81;4126448;28;20218;-62
2022/06/14 08:56:15;;;;;;;2.30;1.15;;;;;;;23.61;42.01;99096.66;4127676;28;20206;-61
2022/06/14 08:59:03;;;;;;;4.13;1.25;;;;;;;23.66;40.91;99096.53;4141395;28;20197;-61
2022/06/14 09:01:27;;;;;;;4.90;1.35;;;;;;;23.06;39.57;99092.50;4098223;28;20266;-61
2022/06/14 09:04:01;;;;;;;3.20;1.33;;;;;;;22.91;40.12;99090.09;4124018;28;20280;-61
2022/06/14 09:06:42;;;;;;;3.33;1.00;;;;;;;22.89;39.47;99092.34;4127484;28;20209;-61
2022/06/14 09:09:22;;;;;;;2.45;1.38;;;;;;;22.93;41.11;99097.00;4128364;28;20248;-61
2022/06/14 09:11:49;;;;;;;2.85;1.70;;;;;;;23.20;39.78;99084.91;4098000;28;20737;-61
2022/06/14 09:14:15;;;;;;;4.90;1.23;;;;;;;23.58;41.04;99089.75;4140090;28;20244;-61
2022/06/14 09:16:42;;;;;;;5.70;1.17;;;;;;;23.81;38.86;99088.56;4127372;28;20202;-61
2022/06/14 09:18:53;;;;;;;4.35;1.05;;;;;;;23.22;38.86;99085.41;4114107;28;20212;-60
2022/06/14 09:21:17;;;;;;;2.78;0.85;;;;;;;22.66;39.28;99080.34;4125132;28;20601;-59
2022/06/14 09:23:28;;;;;;;4.03;1.40;;;;;;;22.99;40.04;99086.53;4122149;28;20300;-61
2022/06/14 09:25:57;;;;;;;4.00;0.98;;;;;;;22.96;39.09;99070.44;4140501;28;20233;-61
2022/06/14 09:27:58;;;;;;;2.08;1.05;;;;;;;23.25;38.25;99073.63;4141919;28;20250;-61
2022/06/14 09:30:05;;;;;;;3.17;1.13;;;;;;;23.44;40.15;99077.03;4141387;28;20217;-61
2022/06/14 09:32:16;;;;;;;3.83;1.27;;;;;;;24.03;40.34;99078.16;4141488;28;20678;-60
2022/06/14 09:34:49;;;;;;;3.83;1.30;;;;;;;23.67;38.16;99073.03;4124552;28;20307;-61
2022/06/14 09:37:14;;;;;;;2.78;1.05;;;;;;;24.28;40.21;99066.22;4128861;28;20209;-61
2022/06/14 09:39:50;;;;;;;7.18;1.35;;;;;;;24.66;38.89;99061.69;4138608;28;20213;-61
2022/06/14 09:42:29;;;;;;;2.28;1.20;;;;;;;24.78;39.61;99053.47;4124350;28;20205;-60
2022/06/14 09:44:33;;;;;;;3.80;1.00;;;;;;;24.62;38.03;99055.13;4140562;28;20212;-61
2022/06/14 09:46:57;;;;;;;2.05;1.40;;;;;;;24.51;38.57;99066.91;4125231;28;20692;-61
2022/06/14 09:49:20;;;;;;;3.78;1.33;;;;;;;24.29;37.69;99059.47;4142077;28;20208;-60
2022/06/14 09:51:53;;;;;;;2.17;1.08;;;;;;;24.28;38.74;99057.84;4121905;28;20236;-61
2022/06/14 09:54:04;;;;;;;3.83;1.10;;;;;;;24.58;39.02;99059.72;4141647;28;20232;-61
2022/06/14 09:56:43;;;;;;;3.75;1.35;;;;;;;24.97;39.12;99045.53;4125489;28;20206;-61
2022/06/14 09:58:54;;;;;;;6.45;1.67;;;;;;;25.37;39.00;99047.00;4126486;28;20246;-61
2022/06/14 10:01:22;;;;;;;3.97;1.30;;;;;;;25.45;39.42;99042.53;4129886;28;20618;-61
2022/06/14 10:03:33;;;;;;;3.20;1.60;;;;;;;25.15;36.92;99049.97;4135344;28;20954;-61
2022/06/14 10:06:03;;;;;;;19.95;1.15;;;;;;;24.71;37.63;99047.53;4122197;28;20684;-61
2022/06/14 10:08:10;;;;;;;3.03;0.98;;;;;;;25.28;38.98;99048.16;4124375;28;20275;-61
2022/06/14 10:10:24;;;;;;;5.85;1.40;;;;;;;24.40;36.88;99046.81;4138350;28;20204;-60
2022/06/14 10:12:44;;;;;;;2.80;1.13;;;;;;;25.07;38.97;99039.59;4139499;28;20222;-60
2022/06/14 10:15:00;;;;;;;6.85;1.38;;;;;;;24.94;37.20;99039.78;4129473;28;20237;-61
2022/06/14 10:17:21;;;;;;;4.40;1.15;;;;;;;24.76;37.67;99038.13;4122475;28;20328;-60
2022/06/14 10:19:44;;;;;;;8.38;1.20;;;;;;;25.14;37.75;99039.91;4128370;28;20609;-60
2022/06/14 10:21:52;;;;;;;8.82;1.55;;;;;;;24.55;38.18;99043.56;4127223;28;20205;-60
2022/06/14 10:23:59;;;;;;;8.38;1.55;;;;;;;24.97;38.07;99037.16;4122516;28;20229;-61
2022/06/14 10:29:32;;;;;;;2.40;1.48;;;;;;;25.87;37.97;99033.94;4073569;29;20222;-61
2022/06/14 10:32:04;;;;;;;7.78;1.35;;;;;;;25.96;36.24;99029.16;4117952;28;20260;-61
2022/06/14 10:34:49;;;;;;;4.65;1.33;;;;;;;25.77;36.27;99023.09;4118342;28;20260;-60
2022/06/14 10:37:03;;;;;;;1.63;1.08;;;;;;;25.64;35.98;99018.53;4137772;28;20200;-60
2022/06/14 10:39:28;;;;;;;3.28;1.23;;;;;;;25.84;36.67;99015.00;4125774;28;20206;-60
2022/06/14 10:41:42;;;;;;;3.38;1.20;;;;;;;26.31;36.82;99019.38;4113898;28;20206;-61
2022/06/14 10:43:50;;;;;;;3.15;1.38;;;;;;;25.91;35.29;99020.91;4124110;28;20233;-60
2022/06/14 10:45:55;;;;;;;3.60;1.30;;;;;;;26.26;37.85;99011.13;4122801;28;20209;-61